createdAt,value
2023-03-22T04:13:01.206Z,7.45
2023-03-22T04:16:04.198Z,7.45
2023-03-22T04:19:06.822Z,6.75
2023-03-22T04:22:14.553Z,6.72
2023-03-22T04:25:18.240Z,6.74
2023-03-22T04:28:21.758Z,6.77
2023-03-22T04:31:25.188Z,6.65
2023-03-22T04:34:28.433Z,6.70
2023-03-22T04:37:34.117Z,6.77
2023-03-22T04:40:38.837Z,6.86
2023-03-22T04:43:42.035Z,6.84
2023-03-22T04:46:44.721Z,6.95
2023-03-22T04:49:47.048Z,6.97
2023-03-22T04:52:51.605Z,6.97
2023-03-22T04:55:58.249Z,6.96
2023-03-22T04:59:01.478Z,6.94
2023-03-22T05:02:03.745Z,6.91
2023-03-22T05:05:07.315Z,6.89
2023-03-22T05:08:09.604Z,6.86
2023-03-22T05:11:14.953Z,6.82
2023-03-22T05:14:18.436Z,7.08
2023-03-22T05:17:21.574Z,7.64
2023-03-22T05:20:24.934Z,7.65
2023-03-22T05:23:27.997Z,8.14
2023-03-22T05:26:31.105Z,8.80
2023-03-22T05:29:36.935Z,9.11
2023-03-22T05:32:43.867Z,9.08
2023-03-22T05:35:46.504Z,9.52
2023-03-22T05:38:49.119Z,10.45
2023-03-22T05:41:52.515Z,11.16
2023-03-22T05:44:55.278Z,11.53
2023-03-22T05:47:58.893Z,12.10
2023-03-22T05:51:03.800Z,11.76
2023-03-22T05:54:08.488Z,11.28
2023-03-22T05:57:11.710Z,11.05
2023-03-22T06:00:16.204Z,11.62
2023-03-22T06:03:22.957Z,12.75
2023-03-22T06:06:28.016Z,15.86
2023-03-22T06:09:30.942Z,17.80
2023-03-22T06:12:33.429Z,18.62
2023-03-22T06:15:36.671Z,19.51
2023-03-22T06:18:38.888Z,18.82
2023-03-22T06:21:42.405Z,18.25
2023-03-22T06:24:49.281Z,17.50
2023-03-22T06:27:52.302Z,17.85
2023-03-22T06:30:56.372Z,17.12
2023-03-22T06:33:59.643Z,16.91
2023-03-22T06:37:02.258Z,15.20
2023-03-22T06:40:07.542Z,14.84
2023-03-22T06:43:09.772Z,15.24
2023-03-22T06:46:13.979Z,15.25
2023-03-22T06:49:19.307Z,15.30
2023-03-22T06:52:21.865Z,15.42
2023-03-22T06:55:24.368Z,16.41
2023-03-22T06:58:27.129Z,16.34
2023-03-22T07:01:29.557Z,15.94
2023-03-22T07:04:33.098Z,15.39
2023-03-22T07:07:35.437Z,14.97
2023-03-22T07:10:39.010Z,14.70
2023-03-22T07:13:41.523Z,14.13
2023-03-22T07:16:44.542Z,14.02
2023-03-22T07:19:46.664Z,14.42
2023-03-22T07:22:51.309Z,14.34
2023-03-22T07:25:56.046Z,14.21
2023-03-22T07:28:59.069Z,14.24
2023-03-22T07:32:01.933Z,15.06
2023-03-22T07:35:05.855Z,15.66
2023-03-22T07:38:08.340Z,15.66
2023-03-22T07:41:11.587Z,15.39
2023-03-22T07:44:18.258Z,15.07
2023-03-22T07:47:37.737Z,15.00
2023-03-22T07:50:44.001Z,14.91
2023-03-22T07:53:46.559Z,15.22
2023-03-22T07:56:49.006Z,15.09
2023-03-22T07:59:51.441Z,14.83
2023-03-22T08:02:54.028Z,15.64
2023-03-22T08:06:03.781Z,15.34
2023-03-22T08:09:08.384Z,14.98
2023-03-22T08:12:11.021Z,14.76
2023-03-22T08:15:14.180Z,15.11
2023-03-22T08:18:16.918Z,15.29
2023-03-22T08:21:19.489Z,15.36
2023-03-22T08:24:27.030Z,14.97
2023-03-22T08:27:31.340Z,14.66
2023-03-22T08:30:34.377Z,15.13
2023-03-22T08:33:36.745Z,15.65
2023-03-22T08:36:39.447Z,15.91
2023-03-22T08:39:44.001Z,16.37
2023-03-22T08:42:50.049Z,16.40
2023-03-22T08:45:52.321Z,16.57
2023-03-22T08:48:55.005Z,16.93
2023-03-22T08:51:59.218Z,16.99
2023-03-22T08:55:04.130Z,17.03
2023-03-22T08:58:13.648Z,17.04
2023-03-22T09:01:17.853Z,15.74
2023-03-22T09:04:20.464Z,15.81
2023-03-22T09:07:24.193Z,16.15
2023-03-22T09:10:26.841Z,16.14
2023-03-22T09:13:31.034Z,16.21
2023-03-22T09:16:33.587Z,16.23
2023-03-22T09:19:36.977Z,16.39
2023-03-22T09:22:39.605Z,16.96
2023-03-22T09:25:45.554Z,16.99
2023-03-22T09:28:47.773Z,16.78
2023-03-22T09:31:50.323Z,17.10
2023-03-22T09:34:52.669Z,17.11
2023-03-22T09:37:58.128Z,17.15
2023-03-22T09:41:05.975Z,16.94
2023-03-22T09:44:16.031Z,16.20
2023-03-22T09:47:45.268Z,16.81
2023-03-22T09:50:53.926Z,16.41
2023-03-22T09:53:56.081Z,16.53
2023-03-22T09:57:08.492Z,16.46
2023-03-22T10:00:38.080Z,16.38
2023-03-22T10:03:46.573Z,16.05
2023-03-22T10:06:54.861Z,16.01
2023-03-22T10:09:57.252Z,15.99
2023-03-22T10:13:24.968Z,16.42
2023-03-22T10:16:33.172Z,15.71
2023-03-22T10:19:56.350Z,15.26
2023-03-22T10:23:02.950Z,15.09
2023-03-22T10:26:07.553Z,14.48
2023-03-22T10:29:19.093Z,14.35
2023-03-22T10:32:56.748Z,14.17
2023-03-22T10:36:01.551Z,14.05
2023-03-22T10:39:33.450Z,14.13
2023-03-22T10:42:38.789Z,14.21
2023-03-22T10:45:42.646Z,14.51
2023-03-22T10:48:48.354Z,14.24
2023-03-22T10:51:54.568Z,13.83
2023-03-22T10:55:01.221Z,14.12
2023-03-22T10:58:20.493Z,14.71
2023-03-22T11:01:36.873Z,14.91
2023-03-22T11:04:39.170Z,15.12
2023-03-22T11:07:45.271Z,15.15
2023-03-22T11:10:51.152Z,15.09
2023-03-22T11:14:06.833Z,14.88
2023-03-22T11:17:15.293Z,14.85
2023-03-22T11:20:19.400Z,14.90
2023-03-22T11:23:22.519Z,14.87
2023-03-22T11:26:35.698Z,14.72
2023-03-22T11:29:47.898Z,14.76
2023-03-22T11:33:01.780Z,14.91
2023-03-22T11:36:18.264Z,14.91
2023-03-22T11:39:27.052Z,15.02
2023-03-22T11:42:29.524Z,15.14
2023-03-22T11:45:36.185Z,14.97
2023-03-22T11:48:42.212Z,15.12
2023-03-22T11:51:45.630Z,15.34
2023-03-22T11:54:49.022Z,15.54
2023-03-22T11:57:56.927Z,15.73
2023-03-22T12:01:02.388Z,16.07
2023-03-22T12:04:08.300Z,16.40
2023-03-22T12:07:19.405Z,17.03
2023-03-22T12:10:40.928Z,16.92
2023-03-22T12:13:57.589Z,17.64
2023-03-22T12:17:07.923Z,17.81
2023-03-22T12:20:19.885Z,18.49
2023-03-22T12:23:25.746Z,18.16
2023-03-22T12:26:29.589Z,18.31
2023-03-22T12:29:33.381Z,18.62
2023-03-22T12:32:42.169Z,18.54
2023-03-22T12:35:47.079Z,18.75
2023-03-22T12:39:01.397Z,18.55
2023-03-22T12:42:13.492Z,18.47
2023-03-22T12:45:21.931Z,17.88
2023-03-22T12:48:38.571Z,17.49
2023-03-22T12:51:43.231Z,17.61
2023-03-22T12:54:49.409Z,18.07
2023-03-22T12:57:54.671Z,17.90
2023-03-22T13:01:10.853Z,18.13
2023-03-22T13:04:28.078Z,17.96
2023-03-22T13:07:38.524Z,18.16
2023-03-22T13:10:48.972Z,18.25
2023-03-22T13:13:51.534Z,18.61
2023-03-22T13:16:59.773Z,18.51
2023-03-22T13:20:11.543Z,18.92
2023-03-22T13:23:26.567Z,18.87
2023-03-22T13:26:40.187Z,19.10
2023-03-22T13:29:43.359Z,18.96
2023-03-22T13:32:56.136Z,19.58
2023-03-22T13:36:07.230Z,19.73
2023-03-22T13:39:12.491Z,19.25
2023-03-22T13:42:17.724Z,19.74
2023-03-22T13:45:33.581Z,19.29
2023-03-22T13:48:54.670Z,18.79
2023-03-22T13:52:00.941Z,18.98
2023-03-22T13:55:03.687Z,19.07
2023-03-22T13:58:09.996Z,18.91
2023-03-22T14:01:24.215Z,19.03
2023-03-22T14:04:37.236Z,18.68
2023-03-22T14:07:45.246Z,18.55
2023-03-22T14:10:56.264Z,18.46
2023-03-22T14:14:04.841Z,18.34
2023-03-22T14:17:27.097Z,18.37
2023-03-22T14:20:34.326Z,18.21
